Mora RC

2021-04-18 20:05:00

  • imperial
Date Time Air Temperature Relative Humidity Dewpoint Windchill Heat Index Wind Speed Wind Dir. Rain Solar Radiation Soil Temperature
2m 2m 3m 3m 10cm
US/Mountain F % F F F MPH deg in MJ/m^2 F
max avg avg
2021-04-17 20:15:00 28.1 89.7 25.5 28.1 28.1 0.8 1.5 0.8 167.0 129.5 0.00 0.0000000 44.7
2021-04-17 20:20:00 28.0 89.6 25.3 28.0 28.0 2.8 3.1 2.2 212.3 207.2 0.00 0.0000000 44.6
2021-04-17 20:25:00 28.0 90.2 25.5 28.0 28.0 1.2 3.0 0.8 68.7 140.0 0.00 0.0000000 44.6
2021-04-17 20:30:00 28.0 90.2 25.5 28.0 28.0 1.2 1.5 0.5 119.8 91.5 0.00 0.0000000 44.6
2021-04-17 20:35:00 28.0 90.4 25.6 28.0 28.0 1.9 1.9 1.0 84.1 93.9 0.00 0.0000000 44.5
2021-04-17 20:40:00 28.0 90.6 25.6 28.0 28.0 1.3 2.1 1.6 82.8 70.5 0.00 0.0000000 44.5
2021-04-17 20:45:00 28.0 90.9 25.7 28.0 28.0 0.0 1.3 0.3 108.4 85.7 0.00 0.0000000 44.4
2021-04-17 20:50:00 28.0 91.0 25.8 28.0 28.0 0.0 1.7 0.5 75.3 83.4 0.00 0.0000000 44.4
2021-04-17 20:55:00 28.0 91.0 25.8 28.0 28.0 0.0 0.0 0.0 178.5 0.0 0.00 0.0000000 44.3
2021-04-17 21:00:00 28.0 91.1 25.7 28.0 28.0 1.9 2.1 1.6 192.7 213.1 0.00 0.0000000 44.3
2021-04-17 21:05:00 28.0 91.2 25.8 28.0 28.0 0.0 2.2 0.6 203.5 190.3 0.00 0.0000000 44.2
2021-04-17 21:10:00 28.0 90.9 25.7 28.0 28.0 1.3 1.7 0.3 200.8 195.3 0.00 0.0000000 44.2
2021-04-17 21:15:00 27.9 90.5 25.4 27.9 27.9 0.0 1.7 0.6 136.7 187.6 0.00 0.0000000 44.2
2021-04-17 21:20:00 27.8 90.0 25.3 27.8 27.8 0.0 0.0 0.0 90.4 0.0 0.00 0.0000000 44.1
2021-04-17 21:25:00 27.8 89.9 25.2 27.8 27.8 0.0 0.0 0.0 119.6 0.0 0.00 0.0000000 44.1
2021-04-17 21:30:00 27.8 90.0 25.3 27.8 27.8 0.0 0.0 0.0 74.4 0.0 0.00 0.0000000 44.1
2021-04-17 21:35:00 27.9 90.1 25.4 27.9 27.9 0.0 0.0 0.0 66.4 0.0 0.00 0.0000000 44.0
2021-04-17 21:40:00 27.9 90.0 25.4 27.9 27.9 0.0 1.0 0.2 88.0 74.5 0.00 0.0000000 44.0
2021-04-17 21:45:00 27.9 89.9 25.3 27.9 27.9 0.0 0.0 0.0 99.9 0.0 0.00 0.0000000 44.0
2021-04-17 21:50:00 27.9 89.8 25.3 27.9 27.9 0.0 0.0 0.0 84.4 0.0 0.00 0.0000000 43.9
2021-04-17 21:55:00 27.9 89.8 25.3 27.9 27.9 0.0 0.0 0.0 112.9 0.0 0.00 0.0000000 43.9
2021-04-17 22:00:00 28.0 89.7 25.4 28.0 28.0 0.0 0.0 0.0 43.6 0.0 0.00 0.0000000 43.9
2021-04-17 22:05:00 27.9 89.5 25.2 27.9 27.9 0.0 0.8 0.1 28.1 82.5 0.00 0.0000000 43.9
2021-04-17 22:10:00 28.0 89.4 25.3 28.0 28.0 0.0 0.0 0.0 25.9 0.0 0.00 0.0000000 43.8
2021-04-17 22:15:00 27.9 88.9 25.1 27.9 27.9 0.0 0.0 0.0 121.9 0.0 0.00 0.0000000 43.8
2021-04-17 22:20:00 28.0 88.7 25.1 28.0 28.0 0.0 0.0 0.0 60.2 0.0 0.00 0.0000000 43.8
2021-04-17 22:25:00 27.9 88.6 25.0 27.9 27.9 0.0 0.0 0.0 110.2 0.0 0.00 0.0000000 43.8
2021-04-17 22:30:00 28.0 88.5 25.0 28.0 28.0 0.0 0.0 0.0 63.7 0.0 0.00 0.0000000 43.7
2021-04-17 22:35:00 28.0 88.6 25.1 28.0 28.0 0.0 0.8 0.0 38.6 33.8 0.00 0.0000000 43.7
2021-04-17 22:40:00 28.0 88.6 25.1 28.0 28.0 0.0 0.8 0.0 47.2 72.0 0.00 0.0000000 43.7
2021-04-17 22:45:00 27.9 88.4 24.9 27.9 27.9 0.0 1.2 0.1 0.6 50.1 0.00 0.0000000 43.6
2021-04-17 22:50:00 28.0 88.5 25.0 28.0 28.0 0.0 0.0 0.0 39.1 0.0 0.00 0.0000000 43.6
2021-04-17 22:55:00 28.0 88.3 25.0 28.0 28.0 0.0 0.0 0.0 59.4 0.0 0.00 0.0000000 43.6
2021-04-17 23:00:00 28.0 88.0 24.9 28.0 28.0 0.0 0.0 0.0 264.1 0.0 0.00 0.0000000 43.6
2021-04-17 23:05:00 27.9 87.9 24.7 27.9 27.9 0.0 0.0 0.0 198.7 0.0 0.00 0.0000000 43.6
2021-04-17 23:10:00 27.7 88.0 24.7 27.7 27.7 0.0 0.0 0.0 209.8 0.0 0.00 0.0000000 43.5
2021-04-17 23:15:00 27.7 88.5 24.7 27.7 27.7 0.0 0.0 0.0 231.6 0.0 0.00 0.0000000 43.5
2021-04-17 23:20:00 27.7 88.4 24.7 27.7 27.7 0.0 0.0 0.0 252.5 0.0 0.00 0.0000000 43.5
2021-04-17 23:25:00 27.8 88.4 24.8 27.8 27.8 0.0 0.0 0.0 27.3 0.0 0.00 0.0000000 43.5
2021-04-17 23:30:00 27.8 88.2 24.8 27.8 27.8 0.0 0.0 0.0 30.0 0.0 0.00 0.0000000 43.5
2021-04-17 23:35:00 27.7 88.1 24.6 27.7 27.7 0.0 0.0 0.0 23.3 0.0 0.00 0.0000000 43.4
2021-04-17 23:40:00 27.7 87.8 24.6 27.7 27.7 0.0 0.0 0.0 23.3 0.0 0.00 0.0000000 43.4
2021-04-17 23:45:00 27.7 87.8 24.6 27.7 27.7 0.0 0.0 0.0 84.6 0.0 0.00 0.0000000 43.4
2021-04-17 23:50:00 27.6 87.8 24.4 27.6 27.6 0.0 0.0 0.0 101.4 0.0 0.00 0.0000000 43.4
2021-04-17 23:55:00 27.4 88.2 24.4 27.4 27.4 0.0 0.0 0.0 66.1 0.0 0.00 0.0000000 43.4
2021-04-18 00:00:00 27.4 88.4 24.4 27.4 27.4 0.0 0.0 0.0 14.7 0.0 0.00 0.0000000 43.3
2021-04-18 00:05:00 27.4 88.9 24.6 27.4 27.4 0.0 1.0 0.1 22.7 28.6 0.00 0.0000000 43.3
2021-04-18 00:10:00 27.6 89.5 24.9 27.6 27.6 0.0 1.7 0.3 94.9 59.3 0.00 0.0000000 43.3
2021-04-18 00:15:00 27.6 89.9 25.1 27.6 27.6 1.0 1.2 0.1 106.8 114.3 0.00 0.0000000 43.3
2021-04-18 00:20:00 27.6 90.1 25.0 27.6 27.6 1.3 2.1 1.4 157.8 122.2 0.00 0.0000000 43.3
2021-04-18 00:25:00 27.4 90.3 25.0 27.4 27.4 1.3 1.3 0.6 137.9 139.3 0.00 0.0000000 43.2
2021-04-18 00:30:00 27.2 90.5 24.8 27.2 27.2 0.0 1.5 0.4 156.4 134.0 0.00 0.0000000 43.2
2021-04-18 00:35:00 27.2 90.9 24.9 27.2 27.2 0.0 1.9 0.4 208.4 142.0 0.00 0.0000000 43.2
2021-04-18 00:40:00 27.3 90.9 25.0 27.3 27.3 0.0 0.0 0.0 178.3 0.0 0.00 0.0000000 43.2
2021-04-18 00:45:00 27.2 91.2 25.0 27.2 27.2 0.0 1.2 0.1 200.7 178.1 0.00 0.0000000 43.2
2021-04-18 00:50:00 27.3 91.3 25.1 27.3 27.3 0.0 0.8 0.0 91.1 136.9 0.00 0.0000000 43.2
2021-04-18 00:55:00 27.2 91.3 25.1 27.2 27.2 0.0 0.0 0.0 110.7 0.0 0.00 0.0000000 43.1
2021-04-18 01:00:00 27.4 91.4 25.2 27.4 27.4 0.0 0.0 0.0 101.3 0.0 0.00 0.0000000 43.1
2021-04-18 01:05:00 27.2 91.3 25.1 27.2 27.2 0.0 0.0 0.0 182.8 0.0 0.00 0.0000000 43.1
2021-04-18 01:10:00 27.3 91.4 25.1 27.3 27.3 0.0 0.0 0.0 23.4 0.0 0.00 0.0000000 43.1
2021-04-18 01:15:00 27.3 91.4 25.1 27.3 27.3 0.0 0.0 0.0 354.1 0.0 0.00 0.0000000 43.1
2021-04-18 01:20:00 27.3 91.2 25.1 27.3 27.3 0.0 0.0 0.0 262.2 0.0 0.00 0.0000000 43.1
2021-04-18 01:25:00 27.3 91.0 25.0 27.3 27.3 0.0 0.0 0.0 221.3 0.0 0.00 0.0000000 43.0
2021-04-18 01:30:00 27.3 90.9 25.0 27.3 27.3 0.0 0.0 0.0 238.0 0.0 0.00 0.0000000 43.0
2021-04-18 01:35:00 27.4 90.9 25.1 27.4 27.4 0.0 0.0 0.0 200.3 0.0 0.00 0.0000000 43.0
2021-04-18 01:40:00 27.4 90.9 25.1 27.4 27.4 1.2 1.7 0.4 226.0 227.5 0.00 0.0000000 43.0
2021-04-18 01:45:00 27.3 91.2 25.1 27.3 27.3 0.0 1.0 0.2 227.2 281.6 0.00 0.0000000 43.0
2021-04-18 01:50:00 27.3 91.2 25.1 27.3 27.3 0.0 0.8 0.0 291.1 265.4 0.00 0.0000000 43.0
2021-04-18 01:55:00 27.4 91.2 25.1 27.4 27.4 0.0 1.2 0.2 291.8 274.5 0.00 0.0000000 43.0
2021-04-18 02:00:00 27.5 91.1 25.3 27.5 27.5 0.0 0.0 0.0 199.5 0.0 0.00 0.0000000 43.0
2021-04-18 02:05:00 27.4 91.1 25.1 27.4 27.4 0.0 0.0 0.0 166.3 0.0 0.00 0.0000000 42.9
2021-04-18 02:10:00 27.4 91.1 25.2 27.4 27.4 0.0 0.0 0.0 182.8 0.0 0.00 0.0000000 42.9
2021-04-18 02:15:00 27.4 91.2 25.1 27.4 27.4 0.0 0.0 0.0 173.4 0.0 0.00 0.0000000 42.9
2021-04-18 02:20:00 27.2 91.2 25.0 27.2 27.2 0.0 0.0 0.0 188.0 0.0 0.00 0.0000000 42.9
2021-04-18 02:25:00 27.2 91.4 25.1 27.2 27.2 0.0 0.0 0.0 200.5 0.0 0.00 0.0000000 42.9
2021-04-18 02:30:00 27.2 91.4 25.0 27.2 27.2 0.0 0.0 0.0 134.2 0.0 0.00 0.0000000 42.9
2021-04-18 02:35:00 27.2 91.4 25.0 27.2 27.2 0.0 0.0 0.0 190.3 0.0 0.00 0.0000000 42.9
2021-04-18 02:40:00 27.2 91.3 25.1 27.2 27.2 0.0 0.0 0.0 355.3 0.0 0.00 0.0000000 42.8
2021-04-18 02:45:00 27.2 91.3 25.0 27.2 27.2 0.0 0.0 0.0 336.8 0.0 0.00 0.0000000 42.8
2021-04-18 02:50:00 27.5 91.5 25.3 27.5 27.5 0.0 0.0 0.0 27.7 0.0 0.00 0.0000000 42.8
2021-04-18 02:55:00 27.4 91.6 25.3 27.4 27.4 0.0 0.0 0.0 72.9 0.0 0.00 0.0000000 42.8
2021-04-18 03:00:00 27.5 91.5 25.3 27.5 27.5 0.0 0.0 0.0 65.3 0.0 0.00 0.0000000 42.8
2021-04-18 03:05:00 27.6 91.5 25.5 27.6 27.6 0.0 0.0 0.0 141.7 0.0 0.00 0.0000000 42.8
2021-04-18 03:10:00 27.4 91.5 25.3 27.4 27.4 0.0 0.0 0.0 142.6 0.0 0.00 0.0000000 42.8
2021-04-18 03:15:00 27.4 91.4 25.3 27.4 27.4 0.0 0.0 0.0 144.6 0.0 0.00 0.0000000 42.8
2021-04-18 03:20:00 27.3 91.4 25.1 27.3 27.3 0.0 0.0 0.0 188.7 0.0 0.00 0.0000000 42.7
2021-04-18 03:25:00 27.4 91.4 25.2 27.4 27.4 0.0 0.0 0.0 160.2 0.0 0.00 0.0000000 42.7
2021-04-18 03:30:00 27.2 91.3 25.1 27.2 27.2 0.0 0.0 0.0 255.7 0.0 0.00 0.0000000 42.7
2021-04-18 03:35:00 26.9 91.2 24.7 26.9 26.9 1.2 1.3 0.3 247.2 229.3 0.00 0.0000000 42.7
2021-04-18 03:40:00 26.8 91.1 24.5 26.8 26.8 0.0 1.3 0.3 242.0 241.1 0.00 0.0000000 42.7
2021-04-18 03:45:00 26.6 91.0 24.3 26.6 26.6 0.0 1.0 0.1 268.5 243.3 0.00 0.0000000 42.7
2021-04-18 03:50:00 26.5 91.1 24.2 26.5 26.5 0.8 1.2 0.4 279.0 240.1 0.00 0.0000000 42.7
2021-04-18 03:55:00 26.3 91.1 24.0 26.3 26.3 0.0 0.0 0.0 215.3 0.0 0.00 0.0000000 42.7
2021-04-18 04:00:00 26.1 90.9 23.8 26.1 26.1 1.5 1.5 0.7 242.5 218.2 0.00 0.0000000 42.6
2021-04-18 04:05:00 25.8 90.5 23.5 25.8 25.8 0.0 1.7 0.7 231.1 223.6 0.00 0.0000000 42.6
2021-04-18 04:10:00 25.7 90.1 23.2 25.7 25.7 0.0 0.8 0.0 277.1 260.4 0.00 0.0000000 42.6
2021-04-18 04:15:00 25.8 90.6 23.4 25.8 25.8 1.5 1.5 0.2 270.2 260.1 0.00 0.0000000 42.6
2021-04-18 04:20:00 25.9 91.1 23.7 25.9 25.9 1.5 1.7 1.0 293.8 279.4 0.00 0.0000000 42.6
2021-04-18 04:25:00 26.2 90.7 23.8 26.2 26.2 0.0 1.9 1.0 329.3 7.8 0.00 0.0000000 42.5
2021-04-18 04:30:00 26.0 89.8 23.4 26.0 26.0 0.0 0.0 0.0 214.0 0.0 0.00 0.0000000 42.5
2021-04-18 04:35:00 25.2 88.3 22.2 25.2 25.2 2.2 2.2 0.4 254.7 255.3 0.00 0.0000000 42.5
2021-04-18 04:40:00 25.1 89.0 22.3 25.1 25.1 1.5 2.4 0.9 241.6 255.2 0.00 0.0000000 42.5
2021-04-18 04:45:00 24.9 88.7 22.1 24.9 24.9 0.8 1.5 0.9 302.4 268.6 0.00 0.0000000 42.5
2021-04-18 04:50:00 24.4 87.8 21.3 24.4 24.4 1.9 1.9 0.9 183.0 221.3 0.00 0.0000000 42.4
2021-04-18 04:55:00 23.8 88.3 20.8 23.8 23.8 2.6 2.6 1.7 280.6 223.6 0.00 0.0000000 42.4
2021-04-18 05:00:00 24.3 89.9 21.7 24.3 24.3 2.6 4.4 2.8 284.3 254.9 0.00 0.0000012 42.4
2021-04-18 05:05:00 24.1 89.4 21.5 17.0 24.1 5.8 5.8 2.7 299.8 247.9 0.00 0.0000000 42.4
2021-04-18 05:10:00 24.1 88.4 21.2 19.7 24.1 3.5 5.6 3.0 252.1 251.1 0.00 0.0000053 42.3
2021-04-18 05:15:00 24.1 87.2 20.8 18.4 24.1 4.4 4.9 3.3 280.4 261.5 0.00 0.0000000 42.3
2021-04-18 05:20:00 23.9 86.3 20.4 19.9 23.9 3.1 5.1 3.3 208.9 265.0 0.00 0.0000000 42.3
2021-04-18 05:25:00 23.7 85.0 19.9 23.7 23.7 3.0 4.6 3.2 284.0 248.5 0.00 0.0000000 42.2
2021-04-18 05:30:00 23.5 85.6 19.8 18.0 23.5 4.2 4.6 2.8 262.1 269.9 0.00 0.0000000 42.2
2021-04-18 05:35:00 23.5 84.9 19.7 18.0 23.5 4.2 4.6 3.1 253.1 270.4 0.00 0.0000000 42.2
2021-04-18 05:40:00 23.6 84.3 19.5 23.6 23.6 1.9 3.8 2.2 295.9 294.2 0.00 0.0000000 42.2
2021-04-18 05:45:00 23.5 84.2 19.5 23.5 23.5 1.0 2.4 1.5 231.9 296.8 0.00 0.0000000 42.1
2021-04-18 05:50:00 22.8 84.6 18.9 22.8 22.8 3.0 3.5 2.2 270.2 234.3 0.00 0.0000000 42.1
2021-04-18 05:55:00 22.7 84.6 18.8 22.7 22.7 2.1 3.7 2.3 280.1 270.0 0.00 0.0000000 42.1
2021-04-18 06:00:00 22.7 84.4 18.7 22.7 22.7 2.1 4.0 2.5 250.2 275.7 0.00 0.0000000 42.0
2021-04-18 06:05:00 22.4 83.8 18.2 22.4 22.4 2.1 3.1 2.1 257.3 252.2 0.00 0.0000000 42.0
2021-04-18 06:10:00 22.2 84.3 18.2 22.2 22.2 1.7 3.8 2.4 292.8 268.2 0.00 0.0000000 42.0
2021-04-18 06:15:00 22.3 84.7 18.4 22.3 22.3 2.4 3.0 2.0 281.1 299.6 0.00 0.0000000 41.9
2021-04-18 06:20:00 22.5 83.8 18.4 17.6 22.5 3.7 3.8 2.7 300.9 306.1 0.00 0.0001399 41.9
2021-04-18 06:25:00 22.4 82.7 17.9 17.4 22.4 3.7 4.6 3.5 294.0 280.6 0.00 0.0006693 41.9
2021-04-18 06:30:00 22.2 82.7 17.7 17.7 22.2 3.3 4.4 3.2 255.4 274.6 0.00 0.0011523 41.8
2021-04-18 06:35:00 21.9 82.2 17.3 21.9 21.9 2.4 4.9 2.9 273.7 277.1 0.00 0.0017015 41.8
2021-04-18 06:40:00 21.8 82.1 17.2 21.8 21.8 3.0 4.0 2.4 319.3 277.7 0.00 0.0022983 41.8
2021-04-18 06:45:00 21.9 80.5 16.8 16.3 21.9 4.0 6.9 4.0 302.9 292.8 0.00 0.0037591 41.7
2021-04-18 06:50:00 21.8 79.9 16.5 21.8 21.8 2.8 5.3 3.1 263.6 282.3 0.00 0.0093951 41.7
2021-04-18 06:55:00 22.0 78.9 16.5 22.0 22.0 1.3 4.4 2.6 316.8 299.0 0.00 0.0120980 41.7
2021-04-18 07:00:00 22.3 77.7 16.4 17.3 22.3 3.7 4.0 2.6 250.2 288.8 0.00 0.0137496 41.7
2021-04-18 07:05:00 22.7 77.8 16.8 22.7 22.7 2.4 3.3 2.5 327.0 292.5 0.00 0.0170724 41.6
2021-04-18 07:10:00 23.6 75.2 16.9 18.8 23.6 3.7 4.9 3.3 310.8 319.2 0.00 0.0177551 41.6
2021-04-18 07:15:00 23.8 75.0 17.0 23.8 23.8 1.5 4.4 2.4 213.7 293.7 0.00 0.0154702 41.6
2021-04-18 07:20:00 23.3 74.5 16.4 23.3 23.3 2.6 4.2 1.9 225.0 238.4 0.00 0.0199822 41.5
2021-04-18 07:25:00 22.9 74.7 16.1 22.9 22.9 2.2 3.7 2.4 309.4 235.0 0.00 0.0223188 41.5
2021-04-18 07:30:00 23.3 75.0 16.5 23.3 23.3 2.2 3.0 1.7 230.7 233.9 0.00 0.0263588 41.5
2021-04-18 07:35:00 23.7 73.4 16.4 23.7 23.7 2.1 3.7 1.6 263.6 258.1 0.00 0.0283379 41.5
2021-04-18 07:40:00 23.8 75.4 17.1 23.8 23.8 1.9 3.3 1.8 247.7 281.8 0.00 0.0295872 41.4
2021-04-18 07:45:00 24.4 73.9 17.2 19.2 24.4 4.0 4.0 2.2 229.1 238.3 0.00 0.0317784 41.4
2021-04-18 07:50:00 24.5 75.0 17.7 24.5 24.5 2.8 3.5 2.2 221.0 211.5 0.00 0.0333898 41.4
2021-04-18 07:55:00 24.5 73.7 17.3 24.5 24.5 2.4 4.0 2.9 200.2 201.9 0.00 0.0353407 41.4
2021-04-18 08:00:00 25.0 74.3 18.0 25.0 25.0 1.7 3.7 2.8 245.8 213.2 0.00 0.0372165 41.4
2021-04-18 08:05:00 26.0 71.7 18.1 26.0 26.0 1.3 3.1 1.4 326.7 267.8 0.00 0.0377416 41.3
2021-04-18 08:10:00 26.0 73.6 18.8 26.0 26.0 1.9 3.5 2.0 269.3 260.9 0.00 0.0384479 41.3
2021-04-18 08:15:00 26.5 72.2 18.7 26.5 26.5 1.0 3.3 2.1 274.8 253.1 0.00 0.0422701 41.3
2021-04-18 08:20:00 27.1 68.6 18.1 22.8 27.1 3.7 4.2 1.8 313.2 290.4 0.00 0.0439812 41.3
2021-04-18 08:25:00 26.8 71.8 18.9 26.8 26.8 2.1 4.2 2.8 269.9 288.1 0.00 0.0477744 41.3
2021-04-18 08:30:00 28.2 70.9 20.0 28.2 28.2 1.2 2.2 1.5 327.4 282.4 0.00 0.0820180 41.3
2021-04-18 08:35:00 29.4 68.5 20.3 29.4 29.4 3.0 3.0 1.6 285.4 272.1 0.00 0.1243322 41.3
2021-04-18 08:40:00 29.1 68.8 20.1 29.1 29.1 2.2 3.7 2.6 316.3 288.6 0.00 0.1335724 41.3
2021-04-18 08:45:00 29.1 67.6 19.7 29.1 29.1 2.2 4.0 2.6 301.8 259.3 0.01 0.1397797 41.3
2021-04-18 08:50:00 29.3 66.5 19.5 29.3 29.3 2.6 3.7 2.6 228.4 231.7 0.00 0.1455637 41.3
2021-04-18 08:55:00 29.4 67.4 19.9 29.4 29.4 3.0 3.5 2.7 271.3 267.7 0.00 0.1501047 41.3
2021-04-18 09:00:00 29.0 68.2 19.9 29.0 29.0 2.6 3.5 3.0 202.8 265.1 0.00 0.1549751 41.3
2021-04-18 09:05:00 29.6 66.4 19.7 26.1 29.6 3.3 3.3 2.6 271.4 274.8 0.00 0.1604072 41.3
2021-04-18 09:10:00 30.4 70.5 21.9 30.4 30.4 1.3 3.0 1.9 295.7 292.5 0.00 0.1655287 41.3
2021-04-18 09:15:00 31.1 64.8 20.6 31.1 31.1 2.8 3.1 1.7 275.6 260.7 0.02 0.1705928 41.4
2021-04-18 09:20:00 31.0 68.2 21.8 31.0 31.0 2.4 3.1 2.0 205.4 280.3 0.01 0.1738516 41.5
2021-04-18 09:25:00 32.0 67.4 22.5 32.0 32.0 0.0 3.3 1.7 164.9 180.6 0.01 0.1795116 41.5
2021-04-18 09:30:00 32.6 64.5 22.0 32.6 32.6 0.0 3.3 2.0 90.6 139.8 0.01 0.1839709 41.6
2021-04-18 09:35:00 33.3 63.1 22.1 33.3 33.3 0.0 2.8 1.0 34.4 139.0 0.02 0.1887694 41.6
2021-04-18 09:40:00 33.2 64.5 22.5 33.2 33.2 2.8 2.8 1.5 55.2 57.8 0.01 0.1933039 41.7
2021-04-18 09:45:00 33.6 66.3 23.5 33.6 33.6 1.5 2.8 1.4 164.8 123.5 0.01 0.1985333 41.9
2021-04-18 09:50:00 34.4 66.0 24.2 34.4 34.4 1.7 2.2 1.0 62.1 64.3 0.00 0.2033441 42.0
2021-04-18 09:55:00 34.7 67.0 24.9 34.7 34.7 0.0 2.6 1.3 105.0 73.7 0.00 0.2074344 42.2
2021-04-18 10:00:00 36.3 63.2 25.0 36.3 36.3 2.8 3.1 1.1 131.5 39.6 0.00 0.2132734 42.4
2021-04-18 10:05:00 35.4 63.4 24.2 35.4 35.4 2.1 4.0 2.9 130.0 137.8 0.00 0.2169115 42.5
2021-04-18 10:10:00 35.8 59.8 23.2 35.8 35.8 1.7 3.8 1.6 195.7 125.9 0.00 0.2211493 42.8
2021-04-18 10:15:00 36.3 52.3 20.5 36.3 36.3 0.0 3.0 1.9 69.9 115.6 0.00 0.2263070 43.0
2021-04-18 10:20:00 36.5 51.4 20.2 36.5 36.5 1.3 2.4 1.4 77.9 58.3 0.00 0.2301025 43.3
2021-04-18 10:25:00 37.6 45.3 18.3 37.6 37.6 1.7 2.2 0.8 232.8 200.6 0.00 0.2342838 43.5
2021-04-18 10:30:00 38.4 48.2 20.5 38.4 38.4 2.6 2.8 1.3 350.4 296.1 0.00 0.2397573 43.8
2021-04-18 10:35:00 38.9 47.8 20.8 38.9 38.9 2.1 2.6 0.9 187.3 13.9 0.00 0.2437497 44.1
2021-04-18 10:40:00 38.6 49.8 21.4 38.6 38.6 1.0 3.8 2.6 134.9 133.9 0.00 0.2464028 44.4
2021-04-18 10:45:00 38.3 45.4 19.0 38.3 38.3 2.6 4.4 2.5 181.7 96.4 0.00 0.2495711 44.7
2021-04-18 10:50:00 38.1 50.5 21.3 38.1 38.1 0.8 3.7 2.2 126.8 124.6 0.00 0.2533316 45.0
2021-04-18 10:55:00 38.2 46.7 19.6 38.2 38.2 0.0 3.7 1.9 122.4 189.5 0.00 0.2562326 45.3
2021-04-18 11:00:00 39.1 49.9 22.0 39.1 39.1 2.1 3.7 1.4 139.3 98.6 0.00 0.2602495 45.6
2021-04-18 11:05:00 38.7 57.2 24.8 36.7 38.7 3.1 3.7 2.6 144.9 158.0 0.00 0.2621126 46.0
2021-04-18 11:10:00 39.3 47.1 20.8 39.3 39.3 1.9 4.2 1.9 166.4 98.5 0.00 0.2661877 46.3
2021-04-18 11:15:00 39.4 50.4 22.5 37.1 39.4 3.5 4.6 2.8 231.8 346.4 0.00 0.2692821 46.6
2021-04-18 11:20:00 40.1 53.0 24.4 40.1 40.1 1.9 3.1 2.0 329.3 239.8 0.00 0.2720237 47.0
2021-04-18 11:25:00 40.9 52.0 24.6 40.9 40.9 2.2 3.7 2.3 349.4 334.5 0.00 0.2753830 47.3
2021-04-18 11:30:00 40.8 53.5 25.2 40.8 40.8 1.5 4.4 2.3 186.5 65.4 0.00 0.2773300 47.6
2021-04-18 11:35:00 40.9 45.6 21.5 40.9 40.9 0.0 4.7 2.4 35.0 22.7 0.00 0.2798787 47.9
2021-04-18 11:40:00 41.4 53.3 25.7 39.7 41.4 3.1 4.0 2.0 298.6 226.8 0.00 0.2818741 48.3
2021-04-18 11:45:00 41.1 54.5 25.9 41.1 41.1 1.3 4.7 2.2 73.9 317.2 0.00 0.2857300 48.6
2021-04-18 11:50:00 41.0 47.6 22.6 38.8 41.0 3.7 4.7 2.4 230.9 123.7 0.00 0.2880708 49.0
2021-04-18 11:55:00 40.4 43.6 20.0 37.1 40.4 4.7 5.6 3.7 195.2 271.2 0.00 0.2895062 49.3
2021-04-18 12:00:00 41.7 40.4 19.4 41.7 41.7 2.8 4.0 2.5 248.8 204.5 0.00 0.2928203 49.6
2021-04-18 12:05:00 41.8 51.7 25.3 38.4 41.8 5.3 6.3 3.6 296.9 245.2 0.00 0.2956758 50.0
2021-04-18 12:10:00 41.2 48.8 23.4 38.0 41.2 4.9 8.0 4.7 306.2 309.2 0.00 0.2817622 50.3
2021-04-18 12:15:00 41.8 51.5 25.3 40.1 41.8 3.3 6.3 4.4 235.1 274.4 0.00 0.2941478 50.6
2021-04-18 12:20:00 42.5 42.8 21.5 42.5 42.5 3.0 4.9 3.3 111.8 202.8 0.00 0.2965320 50.9
2021-04-18 12:25:00 43.3 41.4 21.4 40.2 43.3 5.3 6.0 2.8 164.8 153.6 0.00 0.2978471 51.2
2021-04-18 12:30:00 42.3 39.3 19.3 40.7 42.3 3.3 5.5 3.4 80.8 37.9 0.00 0.2984253 51.5
2021-04-18 12:35:00 42.9 41.4 21.0 40.9 42.9 3.7 7.8 4.1 111.8 135.3 0.00 0.2995233 51.8
2021-04-18 12:40:00 43.7 36.5 18.8 39.9 43.7 6.3 8.0 4.5 121.9 108.0 0.00 0.3011542 52.1
2021-04-18 12:45:00 43.5 33.4 16.5 43.5 43.5 2.1 8.1 2.9 83.1 89.4 0.00 0.3021769 52.4
2021-04-18 12:50:00 43.1 31.2 14.7 43.1 43.1 1.7 5.3 2.9 288.0 285.1 0.00 0.3023646 52.7
2021-04-18 12:55:00 43.6 37.6 19.3 41.2 43.6 4.2 6.9 4.3 146.7 151.0 0.00 0.3042108 53.0
2021-04-18 13:00:00 43.6 27.4 12.2 43.6 43.6 1.2 5.8 3.7 17.9 148.9 0.00 0.2854301 53.2
2021-04-18 13:05:00 43.8 19.7 4.9 41.5 43.8 4.2 5.6 2.8 193.9 283.7 0.00 0.3028127 53.5
2021-04-18 13:10:00 44.2 28.8 13.8 42.0 44.2 4.2 4.2 3.1 29.2 305.4 0.00 0.3021791 53.8
2021-04-18 13:15:00 45.3 35.3 19.4 42.9 45.3 4.6 5.6 3.9 271.9 312.7 0.00 0.3022898 54.0
2021-04-18 13:20:00 44.7 28.2 13.7 44.7 44.7 1.3 5.8 2.8 319.2 293.9 0.00 0.3003929 54.2
2021-04-18 13:25:00 45.3 34.3 18.8 45.3 45.3 1.9 4.9 2.6 51.7 178.7 0.00 0.3025193 54.4
2021-04-18 13:30:00 45.0 32.6 17.3 45.0 45.0 2.1 5.8 3.6 36.4 331.9 0.00 0.2997617 54.7
2021-04-18 13:35:00 45.0 29.8 15.2 42.9 45.0 4.2 6.9 3.5 21.8 27.4 0.00 0.2988088 54.9
2021-04-18 13:40:00 45.5 31.9 17.2 43.2 45.5 4.6 7.6 4.1 349.5 94.3 0.00 0.2997585 55.0
2021-04-18 13:45:00 46.3 25.0 12.3 46.3 46.3 3.0 6.0 4.2 347.6 5.3 0.00 0.3035437 55.2
2021-04-18 13:50:00 45.5 21.6 8.4 43.2 45.5 4.6 5.8 4.0 314.4 32.7 0.00 0.3038069 55.4
2021-04-18 13:55:00 45.1 23.7 10.1 42.3 45.1 5.3 6.3 3.8 333.5 39.7 0.00 0.2986278 55.6
2021-04-18 14:00:00 45.9 26.1 13.0 43.1 45.9 5.5 7.8 5.4 326.1 322.2 0.00 0.2967881 55.8
2021-04-18 14:05:00 45.2 22.9 9.5 45.2 45.2 2.1 7.1 4.4 321.8 318.4 0.00 0.2941256 55.9
2021-04-18 14:10:00 45.8 21.6 8.7 42.4 45.8 6.5 8.3 5.5 336.9 312.7 0.00 0.2840031 56.1
2021-04-18 14:15:00 45.7 21.8 8.8 42.5 45.7 6.0 8.3 5.8 295.7 311.2 0.00 0.2774893 56.3
2021-04-18 14:20:00 46.9 22.2 10.2 46.9 46.9 1.5 6.9 3.1 61.6 293.1 0.00 0.2915980 56.5
2021-04-18 14:25:00 46.8 19.5 7.2 44.9 46.8 4.4 5.8 3.8 343.3 332.5 0.00 0.2820376 56.6
2021-04-18 14:30:00 47.5 24.3 12.7 45.1 47.5 5.3 5.3 2.8 265.4 279.2 0.00 0.2841102 56.8
2021-04-18 14:35:00 47.9 25.4 14.1 46.5 47.9 3.8 5.1 2.9 327.1 336.1 0.00 0.2820025 57.0
2021-04-18 14:40:00 48.4 18.6 7.5 47.6 48.4 3.3 5.3 3.2 345.0 0.5 0.00 0.2818535 57.2
2021-04-18 14:45:00 48.0 18.0 6.5 48.0 48.0 2.2 5.5 3.6 286.2 319.2 0.00 0.2788202 57.3
2021-04-18 14:50:00 48.8 21.8 11.4 48.8 48.8 2.8 4.4 2.7 161.1 354.2 0.00 0.2777129 57.5
2021-04-18 14:55:00 48.2 19.9 8.9 46.0 48.2 5.1 8.3 3.6 68.3 65.5 0.00 0.2723666 57.7
2021-04-18 15:00:00 48.1 18.7 7.5 48.1 48.1 2.6 5.6 3.4 301.3 51.5 0.00 0.2758165 57.9
2021-04-18 15:05:00 49.0 19.5 9.1 48.3 49.0 3.3 5.5 2.7 81.9 49.6 0.00 0.2745645 58.0
2021-04-18 15:10:00 47.9 16.7 4.7 45.7 47.9 5.1 5.6 4.3 340.3 73.2 0.00 0.2693129 58.2
2021-04-18 15:15:00 49.8 23.0 13.4 47.9 49.8 5.1 6.0 3.2 63.1 2.2 0.00 0.2719945 58.4
2021-04-18 15:20:00 48.7 17.2 6.0 48.7 48.7 1.9 7.6 4.6 268.4 36.8 0.00 0.2644870 58.5
2021-04-18 15:25:00 49.0 22.6 12.4 47.7 49.0 4.0 6.3 3.4 44.7 13.2 0.00 0.2586883 58.7
2021-04-18 15:30:00 49.8 18.3 8.3 48.6 49.8 4.0 4.2 2.8 37.9 54.5 0.00 0.2647655 58.8
2021-04-18 15:35:00 48.1 19.4 8.2 48.1 48.1 2.6 4.6 3.0 89.7 145.6 0.00 0.0416761 59.0
2021-04-18 15:40:00 46.6 22.0 9.7 44.6 46.6 4.4 5.5 3.1 112.0 140.8 0.00 0.0413969 59.1
2021-04-18 15:45:00 46.0 26.6 13.5 46.0 46.0 3.0 4.6 3.2 190.0 143.8 0.00 0.0398075 59.3
2021-04-18 15:50:00 45.7 23.7 10.7 43.8 45.7 4.2 4.9 3.7 169.0 173.4 0.00 0.0465547 59.4
2021-04-18 15:55:00 45.7 23.6 10.5 42.9 45.7 5.3 7.4 4.8 207.7 195.9 0.00 0.0464622 59.4
2021-04-18 16:00:00 45.3 26.1 12.5 42.6 45.3 5.1 7.2 5.0 212.2 203.4 0.00 0.0483203 59.4
2021-04-18 16:05:00 45.4 25.2 11.8 45.4 45.4 2.2 6.9 4.6 213.8 212.5 0.00 0.0528536 59.4
2021-04-18 16:10:00 45.6 26.5 13.1 45.6 45.6 3.0 5.5 3.9 242.7 267.2 0.00 0.0507705 59.3
2021-04-18 16:15:00 44.5 33.7 17.6 39.5 44.5 9.0 13.1 7.3 321.3 315.9 0.00 0.0507086 59.2
2021-04-18 16:20:00 43.9 37.2 19.4 39.7 43.9 7.1 13.1 7.4 325.7 321.6 0.00 0.0495974 59.1
2021-04-18 16:25:00 43.8 34.9 17.8 38.0 43.8 10.8 10.8 6.0 350.2 328.8 0.00 0.0438970 58.9
2021-04-18 16:30:00 43.3 35.1 17.5 37.0 43.3 11.9 14.6 8.6 325.4 337.2 0.00 0.0460636 58.8
2021-04-18 16:35:00 43.7 36.0 18.5 40.8 43.7 4.9 9.6 6.6 326.2 317.3 0.00 0.0540006 58.6
2021-04-18 16:40:00 44.3 32.1 16.3 40.1 44.3 7.4 8.8 6.3 299.3 311.1 0.00 0.0813593 58.4
2021-04-18 16:45:00 44.8 31.9 16.6 42.1 44.8 4.9 10.3 7.4 294.2 316.5 0.00 0.1139646 58.2
2021-04-18 16:50:00 45.1 32.0 16.9 41.1 45.1 7.2 9.9 7.4 337.5 307.2 0.00 0.1272878 58.0
2021-04-18 16:55:00 45.8 30.6 16.5 42.9 45.8 5.5 8.1 5.9 337.8 308.1 0.00 0.1532212 57.8
2021-04-18 17:00:00 46.8 26.0 13.7 43.7 46.8 6.3 8.1 5.7 338.2 309.7 0.00 0.1575897 57.6
2021-04-18 17:05:00 46.5 28.2 15.3 43.1 46.5 6.7 8.3 6.6 291.8 312.1 0.00 0.1533668 57.5
2021-04-18 17:10:00 46.8 25.2 12.9 43.9 46.8 5.8 10.1 6.3 285.7 311.7 0.00 0.1518707 57.3
2021-04-18 17:15:00 46.8 25.2 12.9 45.0 46.8 4.2 8.5 5.8 320.8 320.6 0.00 0.1469532 57.2
2021-04-18 17:20:00 47.9 26.8 15.3 44.3 47.9 7.8 8.1 5.0 287.3 298.6 0.00 0.1458772 57.1
2021-04-18 17:25:00 47.5 26.9 15.1 45.7 47.5 4.4 8.0 5.4 334.3 320.3 0.00 0.1424852 57.0
2021-04-18 17:30:00 48.1 26.1 14.9 45.5 48.1 5.8 7.1 4.8 316.9 305.2 0.00 0.1370734 56.9
2021-04-18 17:35:00 48.1 24.3 13.2 44.1 48.1 8.7 8.7 4.8 312.5 326.2 0.00 0.1331577 56.8
2021-04-18 17:40:00 47.6 25.6 14.1 46.5 47.6 3.5 8.0 5.1 292.6 328.0 0.00 0.1289154 56.8
2021-04-18 17:45:00 48.4 21.0 10.2 47.8 48.4 3.1 6.5 3.4 343.8 303.4 0.00 0.1216484 56.7
2021-04-18 17:50:00 48.2 22.6 11.7 48.2 48.2 2.6 5.8 4.0 327.8 302.5 0.00 0.1168920 56.6
2021-04-18 17:55:00 49.1 22.6 12.5 47.8 49.1 4.0 4.0 1.9 292.1 350.4 0.00 0.1185684 56.6
2021-04-18 18:00:00 48.5 25.4 14.6 48.5 48.5 3.0 7.2 4.8 281.7 287.4 0.00 0.1220652 56.6
2021-04-18 18:05:00 48.5 21.5 10.8 47.4 48.5 3.7 7.4 4.6 298.4 268.2 0.00 0.1263402 56.6
2021-04-18 18:10:00 48.4 22.1 11.3 47.4 48.4 3.5 7.2 4.5 194.6 275.0 0.00 0.1244623 56.5
2021-04-18 18:15:00 49.2 25.5 15.3 49.2 49.2 2.1 4.2 2.5 299.1 239.6 0.00 0.1159619 56.5
2021-04-18 18:20:00 48.0 31.1 18.8 44.2 48.0 8.1 9.9 6.0 293.2 285.1 0.00 0.1056945 56.4
2021-04-18 18:25:00 47.2 33.9 20.2 43.5 47.2 7.8 11.3 7.0 325.5 313.7 0.00 0.0970949 56.4
2021-04-18 18:30:00 47.1 31.3 18.2 42.1 47.1 11.0 11.3 7.0 332.4 318.6 0.00 0.0841723 56.4
2021-04-18 18:35:00 46.0 32.7 18.3 41.7 46.0 8.3 12.4 7.9 334.6 324.4 0.00 0.0746418 56.3
2021-04-18 18:40:00 45.7 32.3 17.7 44.0 45.7 3.8 12.2 8.0 351.2 320.0 0.00 0.0717751 56.3
2021-04-18 18:45:00 46.6 30.8 17.4 46.6 46.6 2.2 6.5 3.7 347.3 340.4 0.00 0.0781923 56.3
2021-04-18 18:50:00 47.5 31.6 18.8 46.1 47.5 3.8 5.3 3.6 324.5 356.1 0.00 0.0773167 56.2
2021-04-18 18:55:00 46.5 36.3 21.2 42.9 46.5 7.1 7.1 4.3 29.8 25.9 0.00 0.0710726 56.1
2021-04-18 19:00:00 45.1 38.5 21.4 45.1 45.1 2.6 9.9 4.4 319.0 20.0 0.00 0.0594953 56.1
2021-04-18 19:05:00 44.6 36.3 19.5 42.2 44.6 4.6 8.5 4.5 54.8 358.5 0.00 0.0416491 56.0
2021-04-18 19:10:00 43.7 35.1 17.9 40.3 43.7 5.8 8.0 5.3 335.1 346.8 0.00 0.0271964 55.9
2021-04-18 19:15:00 43.6 33.7 16.8 40.7 43.6 4.9 10.5 6.6 277.9 329.1 0.00 0.0239337 55.9
2021-04-18 19:20:00 43.6 34.7 17.5 40.0 43.6 6.0 9.0 4.8 313.7 335.5 0.00 0.0193055 55.8
2021-04-18 19:25:00 43.6 34.8 17.6 40.8 43.6 4.7 8.1 6.0 291.6 319.3 0.00 0.0122955 55.7
2021-04-18 19:30:00 43.7 28.7 13.3 41.5 43.7 4.2 6.3 3.1 33.6 343.9 0.00 0.0067039 55.6
2021-04-18 19:35:00 43.7 29.6 13.9 43.7 43.7 2.4 4.0 2.1 66.1 355.9 0.00 0.0032641 55.5
2021-04-18 19:40:00 43.0 40.9 20.9 37.8 43.0 9.0 9.6 3.8 322.1 311.2 0.00 0.0009407 55.4
2021-04-18 19:45:00 40.9 46.8 22.2 37.2 40.9 5.5 11.0 7.5 305.8 303.3 0.00 0.0000019 55.2
2021-04-18 19:50:00 40.1 49.2 22.5 35.7 40.1 6.2 9.7 7.9 295.7 295.1 0.00 0.0000000 55.1
2021-04-18 19:55:00 39.5 51.0 22.8 35.5 39.5 5.5 9.9 6.9 294.7 289.2 0.00 0.0000000 55.0
2021-04-18 20:00:00 39.2 50.7 22.4 33.3 39.2 8.5 10.1 7.3 316.7 295.6 0.00 0.0000000 54.8
2021-04-18 20:05:00 39.0 50.8 22.3 33.9 39.0 7.1 10.3 8.0 290.6 292.7 0.00 0.0000000 54.7

Data is courtesy of the NM Climate Center. DO NOT USE IN LEGAL PROCEEDINGS.